Station: Bradshaw  

  Atmospheric Gas Attenuation - ITU Rec 676-11   ----------------- dB/100km -----------------
Date Time Temp RH % AH g/m3 Dew Point Wind Direction Speed kph Gust kph Barometer mB Rainfall Since 9am 24GHz 47GHz 76GHz 122GHz 134GHz 241GHz
08/05 12:00 28.9 36 10.29 12.3 22 37 1014.4 0 22.4 24.3 38.8 102.0 100.2 346.8
08/05 11:50 29 36 10.34 12.4 19 20 1014.7 0 22.5 24.4 38.9 102.4 100.7 348.4
08/05 11:40 27.7 36 9.63 11.3 20 24 1014.9 0 21.1 23.7 37.1 97.4 94.2 325.5
08/05 11:30 28.3 36 9.95 11.8 17 24 1015 0 21.7 24.0 37.9 99.6 97.2 335.9
08/05 11:20 28.2 36 9.9 11.7 17 20 1015.3 0 21.6 24.0 37.8 99.3 96.7 334.4
08/05 11:10 27.3 37 9.68 11.7 19 20 1015.5 0 21.2 23.9 37.5 98.4 95.3 329.3
08/05 11:00 27.1 37 9.58 11.2 17 26 1015.5 0 21.0 23.8 37.2 97.7 94.4 326.1
08/05 10:50 26.7 38 9.62 11.2 17 20 1015.8 0 21.1 24.0 37.5 98.6 95.4 329.4
08/05 10:40 26.5 39 9.76 11.4 13 15 1015.9 0 21.4 24.2 38.1 100.2 97.2 335.9
08/05 10:30 26.5 40 10.01 11.8 17 28 1015.8 0 21.9 24.6 39.0 102.5 100.1 346.1
08/05 10:20 26.2 39 9.6 11.2 20 28 1016 0 21.1 24.1 37.7 99.0 95.7 330.6
08/05 10:10 25.9 40 9.68 11.3 17 24 1016.1 0 21.3 24.3 38.1 100.2 97.0 335.2
08/05 10:00 25.7 39 9.34 10.7 15 24 1016 0 20.6 23.8 37.0 97.2 93.3 322.1
08/05 09:50 25.2 39 9.08 10.6 19 22 1016.2 0 20.1 23.6 36.3 95.4 90.9 313.6
08/05 09:40 25.2 39 9.08 10.6 13 15 1016 0 20.1 23.6 36.3 95.3 90.9 313.5
08/05 09:30 24.4 42 9.35 10.7 17 26 1015.9 0 20.7 24.2 37.7 98.8 94.9 327.7
08/05 09:20 24 43 9.35 10.7 15 22 1016.1 0 20.7 24.3 37.8 99.3 95.4 329.4
08/05 09:10 23.6 43 9.14 10.3 22 28 1015.9 0 20.3 24.1 37.3 97.8 93.4 322.2
08/05 09:00 23.6 45 9.57 11 17 24 1015.8 0 21.2 24.7 38.8 101.9 98.5 340.1
08/05 08:50 23 45 9.25 10.4 19 22 1015.9 0 20.5 24.4 37.9 99.6 95.4 329.2
08/05 08:40 22.4 46 9.13 10.2 17 20 1015.9 0 20.3 24.4 37.8 99.2 94.7 326.6
08/05 08:30 22.2 47 9.23 10.4 15 24 1015.9 0 20.5 24.6 38.2 100.4 96.2 331.7
08/05 08:20 21.9 48 9.26 10.4 17 20 1015.9 0 20.6 24.7 38.5 101.1 96.9 334.2
08/05 08:10 21.4 51 9.56 10.9 13 15 1015.8 0 21.2 25.3 39.9 104.7 101.2 349.1
08/05 08:00 20.9 52 9.47 10.7 11 15 1015.6 0 21.1 25.3 39.8 104.4 100.7 347.4
08/05 07:50 20.1 57 9.91 11.3 11 15 1015.6 0 22.1 26.2 41.8 109.9 107.3 370.3
08/05 07:40 19.2 61 10.06 11.5 7 11 1015.5 0 22.4 26.7 42.9 112.8 110.4 381.2
08/05 07:30 18 67 10.29 11.8 7 9 1015.3 0 23.0 27.5 44.5 116.9 115.2 397.6
08/05 07:20 17.4 68 10.08 11.4 9 9 1015.4 0 22.6 27.3 44.0 115.6 113.3 391.0
08/05 07:10 17 70 10.13 11.5 9 11 1015.4 0 22.7 27.5 44.4 116.7 114.5 395.3
08/05 07:00 16.9 70 10.07 11.4 9 11 1015.2 0 22.6 27.4 44.2 116.2 113.8 392.9
08/05 06:50 16.7 72 10.23 11.6 7 7 1015.1 0 22.9 27.8 44.9 118.2 116.3 401.4
08/05 06:40 16.5 73 10.25 11.6 7 9 1015.1 0 23.0 27.8 45.1 118.7 116.9 403.4
08/05 06:30 16.3 75 10.4 11.9 9 9 1015 0 23.3 28.2 45.9 120.7 119.2 411.5
08/05 06:20 15.3 83 10.84 12.4 7 9 1015.1 0 24.3 29.2 48.3 127.2 126.9 438.2
08/05 06:10 15.2 83 10.77 12.3 7 9 1015 0 24.2 29.1 48.1 126.5 126.0 435.3
08/05 06:00 15.3 81 10.58 12.1 7 9 1014.9 0 23.7 28.8 47.2 124.2 123.2 425.5
08/05 05:50 15.3 85 11.1 12.8 0 0 1014.9 0 24.9 29.7 49.4 130.1 130.5 450.9
08/05 05:40 15.1 89 11.48 13.3 0 0 1014.8 0 25.7 30.4 51.2 134.9 136.3 471.0
08/05 05:30 15.2 86 11.16 12.9 2 7 1014.6 0 25.0 29.8 49.7 131.0 131.5 454.4
08/05 05:20 15.1 87 11.22 13 0 0 1014.7 0 25.1 29.9 50.1 131.8 132.5 458.0
08/05 05:10 15.6 81 10.77 12.4 0 0 1014.6 0 24.1 29.0 47.8 125.9 125.4 433.0
08/05 05:00 16.2 78 10.76 12.4 0 0 1014.5 0 24.1 28.8 47.4 124.8 124.2 429.1
08/05 04:50 15.6 84 11.17 12.9 0 0 1014.6 0 25.0 29.7 49.5 130.4 131.0 452.5
08/05 04:40 15.5 85 11.24 13 6 6 1014.6 0 25.1 29.8 49.9 131.4 132.1 456.6
08/05 04:30 15.5 85 11.24 13 4 7 1014.4 0 25.1 29.8 49.9 131.4 132.1 456.5
08/05 04:20 15.3 86 11.23 13 0 0 1014.3 0 25.1 29.9 50.0 131.6 132.3 457.2
08/05 04:10 15.2 86 11.16 12.9 0 0 1014.4 0 25.0 29.8 49.7 130.9 131.5 454.3
08/05 04:00 15.4 87 11.43 13.2 0 0 1014.4 0 25.6 30.2 50.8 133.7 135.0 466.5
08/05 03:50 15.7 83 11.1 12.8 0 0 1014.4 0 24.8 29.5 49.2 129.4 129.8 448.4
08/05 03:40 15.6 85 11.3 13.1 0 0 1014.7 0 25.3 29.9 50.1 131.9 132.8 459.0
08/05 03:30 15.7 85 11.37 13.2 0 0 1014.7 0 25.4 30.0 50.3 132.5 133.6 461.9
08/05 03:20 15.9 79 10.7 12.3 0 0 1014.8 0 24.0 28.8 47.3 124.6 123.9 428.0
08/05 03:10 16.1 81 11.1 12.8 0 0 1014.8 0 24.8 29.4 48.9 128.8 129.1 446.3
08/05 03:00 15.7 86 11.51 13.4 2 6 1014.8 0 25.7 30.2 50.9 134.2 135.6 468.8
08/05 02:50 15.7 86 11.51 13.4 6 7 1015 0 25.7 30.3 51.0 134.2 135.6 468.9
08/05 02:40 15.6 83 11.04 12.7 6 6 1015.2 0 24.7 29.5 49.0 129.0 129.2 446.4
08/05 02:30 15.6 85 11.3 13.1 0 0 1015.1 0 25.3 29.9 50.1 132.0 132.8 459.1
08/05 02:20 15.9 81 10.97 12.6 0 0 1015.2 0 24.5 29.3 48.5 127.7 127.7 441.2
08/05 02:10 16 81 11.04 12.7 0 0 1015.2 0 24.7 29.3 48.7 128.3 128.5 444.1
08/05 02:00 15.8 84 11.31 13.1 0 0 1015.1 0 25.3 29.9 50.0 131.7 132.6 458.4
08/05 01:50 16.2 84 11.58 13.5 0 0 1015.3 0 25.8 30.2 50.9 134.2 135.8 469.4
08/05 01:40 16.2 82 11.31 13.1 0 0 1015.4 0 25.3 29.7 49.8 131.1 132.0 456.2
08/05 01:30 16 82 11.17 12.9 0 0 1015.4 0 25.0 29.6 49.3 129.8 130.4 450.5
08/05 01:20 16.3 81 11.24 13 0 0 1015.6 0 25.1 29.6 49.4 130.1 130.8 452.2
08/05 01:10 16.2 84 11.58 13.5 0 0 1015.5 0 25.8 30.2 51.0 134.2 135.8 469.5
08/05 01:00 16.4 82 11.44 13.3 0 0 1015.6 0 25.5 29.9 50.2 132.3 133.5 461.4
08/05 00:50 16.2 84 11.58 13.5 0 0 1015.7 0 25.8 30.2 51.0 134.2 135.8 469.6
08/05 00:40 16.4 81 11.3 13.1 0 0 1015.7 0 25.2 29.7 49.6 130.7 131.5 454.6
08/05 00:30 16.6 80 11.3 13.1 0 0 1015.7 0 25.2 29.6 49.5 130.3 131.2 453.4
08/05 00:20 17.4 81 12 14.1 0 0 1015.9 0 26.7 30.5 52.0 137.0 139.6 483.0
08/05 00:10 16.9 78 11.22 13 0 0 1016 0 25.0 29.4 49.0 129.0 129.6 447.9
08/05 00:00 17 78 11.29 13.1 0 0 1016 0 25.2 29.5 49.2 129.6 130.4 450.7
07/05 23:50 17.3 77 11.34 13.2 0 0 1016 0 25.2 29.5 49.2 129.7 130.6 451.4
07/05 23:40 17.4 77 11.41 13.3 4 6 1016.1 0 25.4 29.5 49.5 130.3 131.4 454.2
07/05 23:30 17.6 77 11.55 13.5 4 6 1016.1 0 25.7 29.7 49.9 131.5 133.0 459.9
07/05 23:20 17.9 73 11.15 13 4 6 1016.1 0 24.8 28.9 48.1 126.6 127.0 438.9
07/05 23:10 18.1 70 10.81 12.5 0 0 1016.1 0 24.1 28.3 46.6 122.5 122.0 421.7
07/05 23:00 17.7 76 11.47 13.4 4 7 1016 0 25.5 29.5 49.5 130.5 131.7 455.4
07/05 22:50 17.8 75 11.38 13.3 6 7 1016.1 0 25.3 29.4 49.1 129.3 130.3 450.5
07/05 22:40 17.6 75 11.25 13.1 6 6 1016.1 0 25.0 29.2 48.7 128.2 128.8 445.4
07/05 22:30 18.1 73 11.28 13.2 6 7 1016 0 25.1 29.1 48.5 127.7 128.4 443.9
07/05 22:20 18.3 70 10.94 12.7 0 0 1016.1 0 24.3 28.5 47.0 123.6 123.5 426.7
07/05 22:10 18.4 71 11.17 13 0 0 1016 0 24.8 28.8 47.9 126.0 126.4 437.0
07/05 22:00 19 66 10.75 12.5 0 0 1015.9 0 23.9 27.9 45.8 120.4 119.8 414.0
07/05 21:50 18.5 71 11.23 13.1 0 0 1016 0 24.9 28.9 48.0 126.5 127.0 439.3
07/05 21:40 18.4 74 11.64 13.7 4 6 1016 0 25.8 29.6 49.8 131.2 132.8 459.4
07/05 21:30 18.5 72 11.39 13.4 0 0 1015.9 0 25.3 29.1 48.7 128.2 129.2 446.8
07/05 21:20 18.7 71 11.37 13.3 0 0 1015.9 0 25.2 29.0 48.5 127.7 128.6 444.7
07/05 21:10 19 69 11.24 13.2 0 0 1015.8 0 24.9 28.7 47.8 125.7 126.3 436.9
07/05 21:00 19.1 70 11.47 13.5 0 0 1015.6 0 25.4 29.1 48.6 128.1 129.3 447.1
07/05 20:49 19.2 69 11.38 13.4 0 0 1015.5 0 25.2 28.9 48.2 126.9 127.9 442.2
07/05 20:40 19.3 68 11.28 13.2 0 0 1015.5 0 25.0 28.7 47.7 125.7 126.4 437.0
07/05 20:30 19.5 67 11.24 13.2 0 0 1015.2 0 24.9 28.5 47.4 124.9 125.5 433.9
07/05 20:20 20 64 11.06 13 0 0 1015.2 0 24.5 28.1 46.4 122.1 122.3 422.8
07/05 20:10 20.2 65 11.36 13.4 0 0 1015 0 25.1 28.5 47.5 125.0 125.9 435.5
07/05 20:00 20.8 60 10.86 12.8 6 6 1014.8 0 24.0 27.5 45.1 118.8 118.4 409.3
07/05 19:50 20.4 64 11.32 13.4 6 7 1014.8 0 25.0 28.4 47.2 124.3 125.0 432.5
07/05 19:40 21.4 57 10.69 12.5 0 0 1014.6 0 23.6 27.0 44.1 116.1 115.3 398.5
07/05 19:30 22.3 51 10.07 11.7 4 6 1014.4 0 22.3 25.8 41.3 108.4 106.2 366.8

Last Refresh: 08-May-2026 12:07:28

Bureau of Meteorology